Portada
METAR-TAF:

METAR-TAF

Aeroports :

Waterbury-Oxford Airport

Oxford, Connecticut, Estats Units d'Amèrica

latitud: 41-29N, longitud: 073-08W, altitud: 222 m

Observació

L'informe es va fer fa 22 minuts, a les 22:58 UTC
Vent 5 kt del Sud-Est
Temperatura 18°C
Humitat 100%
Pressió 1010 hPa
Visibilitat: 1.6 km
Cel cobert a una alçada de 300 ft
boirina

METAR: KOXC 192258Z 14005KT 1SM BR OVC003 18/18 A2983 RMK AO2

Hora: 19:20 (23:20 UTC)


TAF: manca

Observacions i pronòstics meteorològics de més de 4000 aeroports (METAR i TAF).

Les estacions disponibles són els punts grocs i vermells al mapa.

Posi el ratolí al punt desitjat per veure el nom de l'estació.

Feu clic per veure les observacions i els pronòstics meteorològics.

Per canviar el mapa: feu clic els botons verds amb una creu de color negre per apropar; al botó verd amb un guió per allunyar la imatge; o en les fletxes verdes per a mapes adjacents.


METAR-TAF: